sensor_id;sensor_type;location;lat;lon;timestamp;P1;durP1;ratioP1;P2;durP2;ratioP2
64075;SDS011;50327;51.328;12.324;2022-12-07T00:01:53;17.13;;;7.55;;
64075;SDS011;50327;51.328;12.324;2022-12-07T00:04:19;17.73;;;7.95;;
64075;SDS011;50327;51.328;12.324;2022-12-07T00:06:45;21.30;;;7.53;;
64075;SDS011;50327;51.328;12.324;2022-12-07T00:09:12;17.58;;;7.25;;
64075;SDS011;50327;51.328;12.324;2022-12-07T00:11:37;16.23;;;7.18;;
64075;SDS011;50327;51.328;12.324;2022-12-07T00:14:04;17.48;;;7.15;;
64075;SDS011;50327;51.328;12.324;2022-12-07T00:16:31;16.55;;;8.45;;
64075;SDS011;50327;51.328;12.324;2022-12-07T00:18:56;15.38;;;7.03;;
64075;SDS011;50327;51.328;12.324;2022-12-07T00:21:23;15.73;;;7.00;;
64075;SDS011;50327;51.328;12.324;2022-12-07T00:23:49;16.65;;;7.15;;
64075;SDS011;50327;51.328;12.324;2022-12-07T00:26:16;15.32;;;7.78;;
64075;SDS011;50327;51.328;12.324;2022-12-07T00:28:44;17.00;;;7.28;;
64075;SDS011;50327;51.328;12.324;2022-12-07T00:31:10;14.18;;;7.45;;
64075;SDS011;50327;51.328;12.324;2022-12-07T00:33:36;16.65;;;8.27;;
64075;SDS011;50327;51.328;12.324;2022-12-07T00:36:02;19.35;;;8.55;;
64075;SDS011;50327;51.328;12.324;2022-12-07T00:38:29;21.35;;;8.52;;
64075;SDS011;50327;51.328;12.324;2022-12-07T00:41:02;23.45;;;9.13;;
64075;SDS011;50327;51.328;12.324;2022-12-07T00:43:28;15.85;;;7.97;;
64075;SDS011;50327;51.328;12.324;2022-12-07T00:45:53;20.52;;;7.82;;
64075;SDS011;50327;51.328;12.324;2022-12-07T00:48:19;19.15;;;8.75;;
64075;SDS011;50327;51.328;12.324;2022-12-07T00:50:44;19.10;;;8.95;;
64075;SDS011;50327;51.328;12.324;2022-12-07T00:53:09;17.40;;;8.55;;
64075;SDS011;50327;51.328;12.324;2022-12-07T00:55:35;21.17;;;9.18;;
64075;SDS011;50327;51.328;12.324;2022-12-07T00:58:00;17.02;;;7.95;;
64075;SDS011;50327;51.328;12.324;2022-12-07T01:00:25;19.58;;;9.38;;
64075;SDS011;50327;51.328;12.324;2022-12-07T01:02:51;20.65;;;8.00;;
64075;SDS011;50327;51.328;12.324;2022-12-07T01:05:16;20.25;;;8.60;;
64075;SDS011;50327;51.328;12.324;2022-12-07T01:07:41;16.35;;;8.07;;
64075;SDS011;50327;51.328;12.324;2022-12-07T01:10:07;18.83;;;8.90;;
64075;SDS011;50327;51.328;12.324;2022-12-07T01:12:32;20.58;;;9.57;;
64075;SDS011;50327;51.328;12.324;2022-12-07T01:14:57;26.55;;;10.07;;
64075;SDS011;50327;51.328;12.324;2022-12-07T01:17:23;19.70;;;8.85;;
64075;SDS011;50327;51.328;12.324;2022-12-07T01:19:48;17.98;;;8.40;;
64075;SDS011;50327;51.328;12.324;2022-12-07T01:22:13;22.15;;;9.48;;
64075;SDS011;50327;51.328;12.324;2022-12-07T01:24:38;18.40;;;8.00;;
64075;SDS011;50327;51.328;12.324;2022-12-07T01:27:03;17.45;;;9.13;;
64075;SDS011;50327;51.328;12.324;2022-12-07T01:29:29;20.77;;;8.52;;
64075;SDS011;50327;51.328;12.324;2022-12-07T01:31:54;18.27;;;8.25;;
64075;SDS011;50327;51.328;12.324;2022-12-07T01:34:19;17.33;;;7.82;;
64075;SDS011;50327;51.328;12.324;2022-12-07T01:36:44;17.35;;;8.32;;
64075;SDS011;50327;51.328;12.324;2022-12-07T01:39:09;19.75;;;8.45;;
64075;SDS011;50327;51.328;12.324;2022-12-07T01:41:36;22.10;;;9.80;;
64075;SDS011;50327;51.328;12.324;2022-12-07T01:44:23;18.08;;;7.50;;
64075;SDS011;50327;51.328;12.324;2022-12-07T01:46:52;16.95;;;8.20;;
64075;SDS011;50327;51.328;12.324;2022-12-07T01:51:43;22.13;;;8.73;;
64075;SDS011;50327;51.328;12.324;2022-12-07T01:54:10;16.63;;;6.95;;
64075;SDS011;50327;51.328;12.324;2022-12-07T01:56:36;19.10;;;7.03;;
64075;SDS011;50327;51.328;12.324;2022-12-07T01:59:02;14.35;;;7.43;;
64075;SDS011;50327;51.328;12.324;2022-12-07T02:01:27;19.48;;;8.25;;
64075;SDS011;50327;51.328;12.324;2022-12-07T02:03:53;15.50;;;6.93;;
64075;SDS011;50327;51.328;12.324;2022-12-07T02:06:19;15.90;;;7.40;;
64075;SDS011;50327;51.328;12.324;2022-12-07T02:08:45;19.73;;;8.43;;
64075;SDS011;50327;51.328;12.324;2022-12-07T02:11:11;16.33;;;7.47;;
64075;SDS011;50327;51.328;12.324;2022-12-07T02:13:37;19.92;;;8.57;;
64075;SDS011;50327;51.328;12.324;2022-12-07T02:19:35;15.75;;;7.82;;
64075;SDS011;50327;51.328;12.324;2022-12-07T02:21:40;19.88;;;7.40;;
64075;SDS011;50327;51.328;12.324;2022-12-07T02:34:32;15.07;;;7.53;;
64075;SDS011;50327;51.328;12.324;2022-12-07T02:37:01;15.13;;;7.60;;
64075;SDS011;50327;51.328;12.324;2022-12-07T02:41:55;17.17;;;7.53;;
64075;SDS011;50327;51.328;12.324;2022-12-07T02:44:23;15.20;;;7.28;;
64075;SDS011;50327;51.328;12.324;2022-12-07T02:46:57;15.02;;;7.53;;
64075;SDS011;50327;51.328;12.324;2022-12-07T02:49:23;16.10;;;7.03;;
64075;SDS011;50327;51.328;12.324;2022-12-07T02:51:52;14.60;;;8.13;;
64075;SDS011;50327;51.328;12.324;2022-12-07T02:54:19;16.80;;;7.03;;
64075;SDS011;50327;51.328;12.324;2022-12-07T03:07:40;13.50;;;6.18;;
64075;SDS011;50327;51.328;12.324;2022-12-07T03:12:19;14.57;;;6.03;;
64075;SDS011;50327;51.328;12.324;2022-12-07T03:14:52;12.95;;;6.35;;
64075;SDS011;50327;51.328;12.324;2022-12-07T03:17:30;15.43;;;6.47;;
64075;SDS011;50327;51.328;12.324;2022-12-07T03:19:58;12.52;;;6.15;;
64075;SDS011;50327;51.328;12.324;2022-12-07T03:22:23;17.20;;;6.65;;
64075;SDS011;50327;51.328;12.324;2022-12-07T03:24:57;17.17;;;6.53;;
64075;SDS011;50327;51.328;12.324;2022-12-07T03:27:24;14.95;;;6.38;;
64075;SDS011;50327;51.328;12.324;2022-12-07T03:37:43;12.75;;;6.20;;
64075;SDS011;50327;51.328;12.324;2022-12-07T03:42:35;12.75;;;5.90;;
64075;SDS011;50327;51.328;12.324;2022-12-07T03:45:01;14.05;;;6.68;;
64075;SDS011;50327;51.328;12.324;2022-12-07T03:47:31;15.80;;;5.88;;
64075;SDS011;50327;51.328;12.324;2022-12-07T03:49:59;15.30;;;6.43;;
64075;SDS011;50327;51.328;12.324;2022-12-07T03:52:26;13.07;;;5.72;;
64075;SDS011;50327;51.328;12.324;2022-12-07T03:54:58;16.83;;;6.77;;
64075;SDS011;50327;51.328;12.324;2022-12-07T03:57:25;12.00;;;6.80;;
64075;SDS011;50327;51.328;12.324;2022-12-07T03:59:51;16.20;;;6.18;;
64075;SDS011;50327;51.328;12.324;2022-12-07T04:02:18;14.35;;;6.00;;
64075;SDS011;50327;51.328;12.324;2022-12-07T04:04:43;13.27;;;6.18;;
64075;SDS011;50327;51.328;12.324;2022-12-07T04:07:09;19.60;;;6.60;;
64075;SDS011;50327;51.328;12.324;2022-12-07T04:09:34;13.57;;;5.65;;
64075;SDS011;50327;51.328;12.324;2022-12-07T04:11:59;12.00;;;5.72;;
64075;SDS011;50327;51.328;12.324;2022-12-07T04:14:24;14.18;;;5.95;;
64075;SDS011;50327;51.328;12.324;2022-12-07T04:16:54;12.32;;;5.70;;
64075;SDS011;50327;51.328;12.324;2022-12-07T04:19:22;12.88;;;5.88;;
64075;SDS011;50327;51.328;12.324;2022-12-07T04:21:48;12.35;;;5.95;;
64075;SDS011;50327;51.328;12.324;2022-12-07T04:24:14;11.63;;;5.65;;
64075;SDS011;50327;51.328;12.324;2022-12-07T04:26:40;11.45;;;5.35;;
64075;SDS011;50327;51.328;12.324;2022-12-07T04:29:05;12.32;;;5.63;;
64075;SDS011;50327;51.328;12.324;2022-12-07T04:31:30;12.98;;;5.50;;
64075;SDS011;50327;51.328;12.324;2022-12-07T04:33:55;14.52;;;5.88;;
64075;SDS011;50327;51.328;12.324;2022-12-07T04:36:21;15.55;;;6.03;;
64075;SDS011;50327;51.328;12.324;2022-12-07T04:38:46;11.40;;;5.78;;
64075;SDS011;50327;51.328;12.324;2022-12-07T04:41:11;14.10;;;6.10;;
64075;SDS011;50327;51.328;12.324;2022-12-07T04:43:37;12.10;;;5.78;;
64075;SDS011;50327;51.328;12.324;2022-12-07T04:46:02;14.88;;;4.82;;
64075;SDS011;50327;51.328;12.324;2022-12-07T04:48:28;10.70;;;5.65;;
64075;SDS011;50327;51.328;12.324;2022-12-07T04:50:53;14.85;;;5.40;;
64075;SDS011;50327;51.328;12.324;2022-12-07T04:53:18;12.02;;;5.22;;
64075;SDS011;50327;51.328;12.324;2022-12-07T04:55:44;13.27;;;5.82;;
64075;SDS011;50327;51.328;12.324;2022-12-07T04:58:09;15.50;;;5.53;;
64075;SDS011;50327;51.328;12.324;2022-12-07T05:00:34;12.68;;;5.53;;
64075;SDS011;50327;51.328;12.324;2022-12-07T05:03:00;11.07;;;5.25;;
64075;SDS011;50327;51.328;12.324;2022-12-07T05:05:25;13.82;;;5.45;;
64075;SDS011;50327;51.328;12.324;2022-12-07T05:07:50;16.08;;;6.05;;
64075;SDS011;50327;51.328;12.324;2022-12-07T05:10:16;12.68;;;5.63;;
64075;SDS011;50327;51.328;12.324;2022-12-07T05:12:41;11.45;;;5.35;;
64075;SDS011;50327;51.328;12.324;2022-12-07T05:15:06;13.25;;;5.70;;
64075;SDS011;50327;51.328;12.324;2022-12-07T05:17:32;14.05;;;6.65;;
64075;SDS011;50327;51.328;12.324;2022-12-07T05:19:57;11.50;;;5.60;;
64075;SDS011;50327;51.328;12.324;2022-12-07T05:22:22;11.23;;;5.80;;
64075;SDS011;50327;51.328;12.324;2022-12-07T05:24:47;11.75;;;6.53;;
64075;SDS011;50327;51.328;12.324;2022-12-07T05:27:13;15.52;;;6.13;;
64075;SDS011;50327;51.328;12.324;2022-12-07T05:29:38;13.77;;;6.47;;
64075;SDS011;50327;51.328;12.324;2022-12-07T05:32:03;16.50;;;6.15;;
64075;SDS011;50327;51.328;12.324;2022-12-07T05:34:28;15.25;;;6.78;;
64075;SDS011;50327;51.328;12.324;2022-12-07T05:36:53;13.85;;;7.28;;
64075;SDS011;50327;51.328;12.324;2022-12-07T05:39:19;13.77;;;7.07;;
64075;SDS011;50327;51.328;12.324;2022-12-07T05:41:44;14.40;;;5.72;;
64075;SDS011;50327;51.328;12.324;2022-12-07T05:44:28;15.32;;;7.18;;
64075;SDS011;50327;51.328;12.324;2022-12-07T05:46:53;14.45;;;7.00;;
64075;SDS011;50327;51.328;12.324;2022-12-07T05:49:18;13.73;;;6.97;;
64075;SDS011;50327;51.328;12.324;2022-12-07T05:51:43;16.02;;;6.78;;
64075;SDS011;50327;51.328;12.324;2022-12-07T05:54:09;15.60;;;7.20;;
64075;SDS011;50327;51.328;12.324;2022-12-07T05:56:34;16.70;;;7.55;;
64075;SDS011;50327;51.328;12.324;2022-12-07T05:58:59;15.07;;;7.32;;
64075;SDS011;50327;51.328;12.324;2022-12-07T06:01:43;15.18;;;8.07;;
64075;SDS011;50327;51.328;12.324;2022-12-07T06:04:09;15.25;;;7.03;;
64075;SDS011;50327;51.328;12.324;2022-12-07T06:06:34;16.25;;;7.80;;
64075;SDS011;50327;51.328;12.324;2022-12-07T06:08:59;20.60;;;8.52;;
64075;SDS011;50327;51.328;12.324;2022-12-07T06:11:25;20.17;;;8.07;;
64075;SDS011;50327;51.328;12.324;2022-12-07T06:14:09;16.92;;;8.75;;
64075;SDS011;50327;51.328;12.324;2022-12-07T06:16:34;16.85;;;8.95;;
64075;SDS011;50327;51.328;12.324;2022-12-07T06:18:59;18.05;;;9.13;;
64075;SDS011;50327;51.328;12.324;2022-12-07T06:21:24;19.40;;;9.35;;
64075;SDS011;50327;51.328;12.324;2022-12-07T06:23:51;19.73;;;8.93;;
64075;SDS011;50327;51.328;12.324;2022-12-07T06:26:16;18.17;;;9.32;;
64075;SDS011;50327;51.328;12.324;2022-12-07T06:28:41;18.63;;;9.30;;
64075;SDS011;50327;51.328;12.324;2022-12-07T06:31:07;19.05;;;9.60;;
64075;SDS011;50327;51.328;12.324;2022-12-07T06:33:32;17.60;;;9.00;;
64075;SDS011;50327;51.328;12.324;2022-12-07T06:35:58;18.92;;;9.85;;
64075;SDS011;50327;51.328;12.324;2022-12-07T06:38:23;19.77;;;9.93;;
64075;SDS011;50327;51.328;12.324;2022-12-07T06:40:48;21.60;;;9.63;;
64075;SDS011;50327;51.328;12.324;2022-12-07T06:43:13;20.33;;;9.82;;
64075;SDS011;50327;51.328;12.324;2022-12-07T06:45:39;20.85;;;9.88;;
64075;SDS011;50327;51.328;12.324;2022-12-07T06:48:05;21.08;;;10.10;;
64075;SDS011;50327;51.328;12.324;2022-12-07T06:50:30;19.75;;;9.90;;
64075;SDS011;50327;51.328;12.324;2022-12-07T06:52:55;18.60;;;8.88;;
64075;SDS011;50327;51.328;12.324;2022-12-07T06:55:20;25.52;;;10.57;;
64075;SDS011;50327;51.328;12.324;2022-12-07T06:57:46;23.48;;;11.38;;
64075;SDS011;50327;51.328;12.324;2022-12-07T07:00:11;25.02;;;11.57;;
64075;SDS011;50327;51.328;12.324;2022-12-07T07:02:36;24.38;;;11.88;;
64075;SDS011;50327;51.328;12.324;2022-12-07T07:05:02;21.88;;;9.52;;
64075;SDS011;50327;51.328;12.324;2022-12-07T07:07:27;20.38;;;9.45;;
64075;SDS011;50327;51.328;12.324;2022-12-07T07:09:53;22.73;;;10.55;;
64075;SDS011;50327;51.328;12.324;2022-12-07T07:12:18;21.63;;;10.50;;
64075;SDS011;50327;51.328;12.324;2022-12-07T07:14:43;21.15;;;10.05;;
64075;SDS011;50327;51.328;12.324;2022-12-07T07:17:09;25.58;;;10.10;;
64075;SDS011;50327;51.328;12.324;2022-12-07T07:19:34;18.38;;;9.63;;
64075;SDS011;50327;51.328;12.324;2022-12-07T07:21:59;24.55;;;10.63;;
64075;SDS011;50327;51.328;12.324;2022-12-07T07:24:24;19.92;;;9.57;;
64075;SDS011;50327;51.328;12.324;2022-12-07T07:26:49;17.20;;;10.05;;
64075;SDS011;50327;51.328;12.324;2022-12-07T07:29:15;20.75;;;11.02;;
64075;SDS011;50327;51.328;12.324;2022-12-07T07:31:40;19.02;;;10.07;;
64075;SDS011;50327;51.328;12.324;2022-12-07T07:34:05;21.50;;;9.52;;
64075;SDS011;50327;51.328;12.324;2022-12-07T07:36:30;18.63;;;9.27;;
64075;SDS011;50327;51.328;12.324;2022-12-07T07:38:56;20.13;;;10.00;;
64075;SDS011;50327;51.328;12.324;2022-12-07T07:41:21;16.15;;;8.68;;
64075;SDS011;50327;51.328;12.324;2022-12-07T07:43:46;17.15;;;9.30;;
64075;SDS011;50327;51.328;12.324;2022-12-07T07:46:11;23.40;;;9.55;;
64075;SDS011;50327;51.328;12.324;2022-12-07T07:48:37;16.35;;;8.10;;
64075;SDS011;50327;51.328;12.324;2022-12-07T07:51:04;18.42;;;8.98;;
64075;SDS011;50327;51.328;12.324;2022-12-07T07:53:30;18.48;;;9.50;;
64075;SDS011;50327;51.328;12.324;2022-12-07T07:55:55;18.70;;;9.00;;
64075;SDS011;50327;51.328;12.324;2022-12-07T07:58:20;17.40;;;8.02;;
64075;SDS011;50327;51.328;12.324;2022-12-07T08:00:46;17.77;;;8.38;;
64075;SDS011;50327;51.328;12.324;2022-12-07T08:03:11;16.60;;;8.70;;
64075;SDS011;50327;51.328;12.324;2022-12-07T08:05:37;17.75;;;9.35;;
64075;SDS011;50327;51.328;12.324;2022-12-07T08:08:02;17.88;;;8.30;;
64075;SDS011;50327;51.328;12.324;2022-12-07T08:10:27;19.27;;;8.40;;
64075;SDS011;50327;51.328;12.324;2022-12-07T08:12:53;20.13;;;8.13;;
64075;SDS011;50327;51.328;12.324;2022-12-07T08:15:37;19.55;;;8.40;;
64075;SDS011;50327;51.328;12.324;2022-12-07T08:18:02;18.23;;;7.68;;
64075;SDS011;50327;51.328;12.324;2022-12-07T08:20:29;22.67;;;7.68;;
64075;SDS011;50327;51.328;12.324;2022-12-07T08:22:54;16.27;;;7.88;;
64075;SDS011;50327;51.328;12.324;2022-12-07T08:25:20;17.27;;;8.02;;
64075;SDS011;50327;51.328;12.324;2022-12-07T08:27:47;18.23;;;8.80;;
64075;SDS011;50327;51.328;12.324;2022-12-07T08:30:12;15.43;;;8.05;;
64075;SDS011;50327;51.328;12.324;2022-12-07T08:32:38;17.05;;;7.47;;
64075;SDS011;50327;51.328;12.324;2022-12-07T08:35:03;15.40;;;7.63;;
64075;SDS011;50327;51.328;12.324;2022-12-07T08:37:29;18.92;;;7.57;;
64075;SDS011;50327;51.328;12.324;2022-12-07T08:39:54;16.42;;;7.95;;
64075;SDS011;50327;51.328;12.324;2022-12-07T08:42:19;18.30;;;8.05;;
64075;SDS011;50327;51.328;12.324;2022-12-07T08:44:47;18.98;;;7.13;;
64075;SDS011;50327;51.328;12.324;2022-12-07T08:47:12;14.52;;;7.10;;
64075;SDS011;50327;51.328;12.324;2022-12-07T08:49:39;17.55;;;6.72;;
64075;SDS011;50327;51.328;12.324;2022-12-07T08:52:05;20.35;;;6.57;;
64075;SDS011;50327;51.328;12.324;2022-12-07T08:54:31;16.20;;;7.65;;
64075;SDS011;50327;51.328;12.324;2022-12-07T08:56:58;20.20;;;7.93;;
64075;SDS011;50327;51.328;12.324;2022-12-07T08:59:23;26.80;;;7.97;;
64075;SDS011;50327;51.328;12.324;2022-12-07T09:01:48;12.80;;;6.55;;
64075;SDS011;50327;51.328;12.324;2022-12-07T09:04:13;15.55;;;7.55;;
64075;SDS011;50327;51.328;12.324;2022-12-07T09:06:40;18.63;;;7.75;;
64075;SDS011;50327;51.328;12.324;2022-12-07T09:09:06;13.57;;;6.88;;
64075;SDS011;50327;51.328;12.324;2022-12-07T09:11:32;20.85;;;7.45;;
64075;SDS011;50327;51.328;12.324;2022-12-07T09:13:57;17.77;;;7.53;;
64075;SDS011;50327;51.328;12.324;2022-12-07T09:16:23;17.08;;;6.78;;
64075;SDS011;50327;51.328;12.324;2022-12-07T09:18:48;18.05;;;6.68;;
64075;SDS011;50327;51.328;12.324;2022-12-07T09:21:13;19.55;;;7.60;;
64075;SDS011;50327;51.328;12.324;2022-12-07T09:23:38;13.38;;;7.07;;
64075;SDS011;50327;51.328;12.324;2022-12-07T09:26:04;17.60;;;6.93;;
64075;SDS011;50327;51.328;12.324;2022-12-07T09:28:32;16.27;;;7.35;;
64075;SDS011;50327;51.328;12.324;2022-12-07T09:30:58;13.88;;;7.03;;
64075;SDS011;50327;51.328;12.324;2022-12-07T09:33:23;14.98;;;7.07;;
64075;SDS011;50327;51.328;12.324;2022-12-07T09:35:49;14.82;;;6.25;;
64075;SDS011;50327;51.328;12.324;2022-12-07T09:38:15;18.20;;;6.35;;
64075;SDS011;50327;51.328;12.324;2022-12-07T09:40:40;16.05;;;6.80;;
64075;SDS011;50327;51.328;12.324;2022-12-07T09:43:29;18.33;;;7.88;;
64075;SDS011;50327;51.328;12.324;2022-12-07T09:45:54;15.13;;;7.13;;
64075;SDS011;50327;51.328;12.324;2022-12-07T09:48:30;12.73;;;7.18;;
64075;SDS011;50327;51.328;12.324;2022-12-07T09:50:57;17.10;;;8.25;;
64075;SDS011;50327;51.328;12.324;2022-12-07T09:53:40;14.63;;;6.55;;
64075;SDS011;50327;51.328;12.324;2022-12-07T09:56:06;16.95;;;8.27;;
64075;SDS011;50327;51.328;12.324;2022-12-07T09:58:32;12.93;;;6.70;;
64075;SDS011;50327;51.328;12.324;2022-12-07T10:01:05;13.65;;;7.55;;
64075;SDS011;50327;51.328;12.324;2022-12-07T10:03:35;12.45;;;6.78;;
64075;SDS011;50327;51.328;12.324;2022-12-07T10:06:01;15.63;;;7.85;;
64075;SDS011;50327;51.328;12.324;2022-12-07T10:08:26;12.77;;;6.80;;
64075;SDS011;50327;51.328;12.324;2022-12-07T10:10:53;16.90;;;6.47;;
64075;SDS011;50327;51.328;12.324;2022-12-07T10:13:35;14.32;;;6.32;;
64075;SDS011;50327;51.328;12.324;2022-12-07T10:16:01;12.32;;;6.35;;
64075;SDS011;50327;51.328;12.324;2022-12-07T10:18:28;15.32;;;7.35;;
64075;SDS011;50327;51.328;12.324;2022-12-07T10:21:03;13.90;;;6.93;;
64075;SDS011;50327;51.328;12.324;2022-12-07T10:23:29;19.70;;;7.13;;
64075;SDS011;50327;51.328;12.324;2022-12-07T10:25:54;26.55;;;7.80;;
64075;SDS011;50327;51.328;12.324;2022-12-07T10:28:20;10.82;;;5.78;;
64075;SDS011;50327;51.328;12.324;2022-12-07T10:36:09;14.27;;;6.43;;
64075;SDS011;50327;51.328;12.324;2022-12-07T10:38:43;15.07;;;5.70;;
64075;SDS011;50327;51.328;12.324;2022-12-07T10:41:09;10.80;;;5.47;;
64075;SDS011;50327;51.328;12.324;2022-12-07T10:43:34;13.90;;;5.65;;
64075;SDS011;50327;51.328;12.324;2022-12-07T10:48:37;12.65;;;5.28;;
64075;SDS011;50327;51.328;12.324;2022-12-07T11:06:34;11.10;;;4.75;;
64075;SDS011;50327;51.328;12.324;2022-12-07T11:11:50;10.70;;;4.70;;
64075;SDS011;50327;51.328;12.324;2022-12-07T11:14:22;10.63;;;5.25;;
64075;SDS011;50327;51.328;12.324;2022-12-07T11:16:56;13.68;;;6.38;;
64075;SDS011;50327;51.328;12.324;2022-12-07T11:22:16;14.88;;;6.07;;
64075;SDS011;50327;51.328;12.324;2022-12-07T11:37:28;9.90;;;3.92;;
64075;SDS011;50327;51.328;12.324;2022-12-07T11:39:55;8.20;;;4.20;;
64075;SDS011;50327;51.328;12.324;2022-12-07T11:42:31;10.18;;;3.88;;
64075;SDS011;50327;51.328;12.324;2022-12-07T11:47:36;12.25;;;4.90;;
64075;SDS011;50327;51.328;12.324;2022-12-07T11:54:59;11.60;;;3.97;;
64075;SDS011;50327;51.328;12.324;2022-12-07T11:57:37;8.73;;;4.00;;
64075;SDS011;50327;51.328;12.324;2022-12-07T12:00:05;11.82;;;4.07;;
64075;SDS011;50327;51.328;12.324;2022-12-07T12:02:34;10.15;;;4.20;;
64075;SDS011;50327;51.328;12.324;2022-12-07T12:05:15;11.43;;;3.60;;
64075;SDS011;50327;51.328;12.324;2022-12-07T12:07:42;7.82;;;3.35;;
64075;SDS011;50327;51.328;12.324;2022-12-07T12:10:16;8.95;;;3.50;;
64075;SDS011;50327;51.328;12.324;2022-12-07T12:20:45;9.57;;;3.28;;
64075;SDS011;50327;51.328;12.324;2022-12-07T12:23:22;7.35;;;2.92;;
64075;SDS011;50327;51.328;12.324;2022-12-07T12:25:49;7.20;;;2.90;;
64075;SDS011;50327;51.328;12.324;2022-12-07T12:28:20;6.68;;;2.10;;
64075;SDS011;50327;51.328;12.324;2022-12-07T12:30:47;4.43;;;2.10;;
64075;SDS011;50327;51.328;12.324;2022-12-07T12:33:29;5.35;;;2.83;;
64075;SDS011;50327;51.328;12.324;2022-12-07T12:43:58;7.25;;;2.50;;
64075;SDS011;50327;51.328;12.324;2022-12-07T12:51:41;4.95;;;1.77;;
64075;SDS011;50327;51.328;12.324;2022-12-07T12:54:26;7.30;;;2.20;;
64075;SDS011;50327;51.328;12.324;2022-12-07T12:59:32;5.70;;;1.73;;
64075;SDS011;50327;51.328;12.324;2022-12-07T13:04:34;6.60;;;2.23;;
64075;SDS011;50327;51.328;12.324;2022-12-07T13:07:00;7.95;;;1.80;;
64075;SDS011;50327;51.328;12.324;2022-12-07T13:09:28;5.35;;;2.45;;
64075;SDS011;50327;51.328;12.324;2022-12-07T13:11:59;15.93;;;1.90;;
64075;SDS011;50327;51.328;12.324;2022-12-07T13:17:04;3.35;;;1.77;;
64075;SDS011;50327;51.328;12.324;2022-12-07T13:22:52;6.82;;;1.80;;
64075;SDS011;50327;51.328;12.324;2022-12-07T13:25:12;6.95;;;1.60;;
64075;SDS011;50327;51.328;12.324;2022-12-07T13:27:46;4.00;;;1.40;;
64075;SDS011;50327;51.328;12.324;2022-12-07T13:30:16;3.50;;;1.30;;
64075;SDS011;50327;51.328;12.324;2022-12-07T13:32:42;6.22;;;1.35;;
64075;SDS011;50327;51.328;12.324;2022-12-07T13:37:51;3.72;;;1.38;;
64075;SDS011;50327;51.328;12.324;2022-12-07T13:40:18;2.10;;;1.20;;
64075;SDS011;50327;51.328;12.324;2022-12-07T13:42:44;4.68;;;1.60;;
64075;SDS011;50327;51.328;12.324;2022-12-07T13:45:23;4.55;;;1.67;;
64075;SDS011;50327;51.328;12.324;2022-12-07T13:48:08;5.47;;;1.80;;
64075;SDS011;50327;51.328;12.324;2022-12-07T13:53:07;5.47;;;1.42;;
64075;SDS011;50327;51.328;12.324;2022-12-07T13:55:36;2.50;;;1.25;;
64075;SDS011;50327;51.328;12.324;2022-12-07T13:58:08;9.75;;;1.65;;
64075;SDS011;50327;51.328;12.324;2022-12-07T14:00:34;5.25;;;1.50;;
64075;SDS011;50327;51.328;12.324;2022-12-07T14:05:37;3.97;;;1.90;;
64075;SDS011;50327;51.328;12.324;2022-12-07T14:10:54;3.58;;;1.60;;
64075;SDS011;50327;51.328;12.324;2022-12-07T14:13:24;6.60;;;1.45;;
64075;SDS011;50327;51.328;12.324;2022-12-07T14:15:52;9.00;;;1.60;;
64075;SDS011;50327;51.328;12.324;2022-12-07T14:18:24;2.00;;;1.27;;
64075;SDS011;50327;51.328;12.324;2022-12-07T14:20:50;6.03;;;1.55;;
64075;SDS011;50327;51.328;12.324;2022-12-07T14:23:23;6.72;;;1.80;;
64075;SDS011;50327;51.328;12.324;2022-12-07T14:25:50;2.92;;;1.17;;
64075;SDS011;50327;51.328;12.324;2022-12-07T14:28:28;5.80;;;1.85;;
64075;SDS011;50327;51.328;12.324;2022-12-07T14:30:54;6.60;;;1.65;;
64075;SDS011;50327;51.328;12.324;2022-12-07T14:33:19;4.40;;;1.58;;
64075;SDS011;50327;51.328;12.324;2022-12-07T14:35:45;6.85;;;1.33;;
64075;SDS011;50327;51.328;12.324;2022-12-07T14:38:10;6.13;;;1.60;;
64075;SDS011;50327;51.328;12.324;2022-12-07T14:40:35;8.73;;;1.67;;
64075;SDS011;50327;51.328;12.324;2022-12-07T14:43:02;3.17;;;1.40;;
64075;SDS011;50327;51.328;12.324;2022-12-07T14:45:27;8.50;;;1.77;;
64075;SDS011;50327;51.328;12.324;2022-12-07T14:47:53;9.30;;;1.20;;
64075;SDS011;50327;51.328;12.324;2022-12-07T14:50:19;3.10;;;1.50;;
64075;SDS011;50327;51.328;12.324;2022-12-07T14:52:48;2.80;;;1.40;;
64075;SDS011;50327;51.328;12.324;2022-12-07T14:55:26;3.67;;;1.45;;
64075;SDS011;50327;51.328;12.324;2022-12-07T14:57:52;4.20;;;1.30;;
64075;SDS011;50327;51.328;12.324;2022-12-07T15:00:17;2.65;;;1.10;;
64075;SDS011;50327;51.328;12.324;2022-12-07T15:02:43;3.28;;;1.50;;
64075;SDS011;50327;51.328;12.324;2022-12-07T15:05:09;7.63;;;1.20;;
64075;SDS011;50327;51.328;12.324;2022-12-07T15:07:34;9.30;;;1.52;;
64075;SDS011;50327;51.328;12.324;2022-12-07T15:09:59;4.78;;;1.38;;
64075;SDS011;50327;51.328;12.324;2022-12-07T15:12:24;3.55;;;1.30;;
64075;SDS011;50327;51.328;12.324;2022-12-07T15:14:50;6.57;;;1.60;;
64075;SDS011;50327;51.328;12.324;2022-12-07T15:17:15;2.70;;;1.25;;
64075;SDS011;50327;51.328;12.324;2022-12-07T15:19:40;5.25;;;1.10;;
64075;SDS011;50327;51.328;12.324;2022-12-07T15:22:05;2.70;;;1.10;;
64075;SDS011;50327;51.328;12.324;2022-12-07T15:24:31;4.18;;;1.42;;
64075;SDS011;50327;51.328;12.324;2022-12-07T15:26:56;5.18;;;1.40;;
64075;SDS011;50327;51.328;12.324;2022-12-07T15:29:21;6.30;;;1.83;;
64075;SDS011;50327;51.328;12.324;2022-12-07T15:31:48;5.78;;;2.10;;
64075;SDS011;50327;51.328;12.324;2022-12-07T15:34:13;5.93;;;1.55;;
64075;SDS011;50327;51.328;12.324;2022-12-07T15:36:38;4.15;;;1.50;;
64075;SDS011;50327;51.328;12.324;2022-12-07T15:39:03;3.92;;;1.92;;
64075;SDS011;50327;51.328;12.324;2022-12-07T15:41:29;3.78;;;1.50;;
64075;SDS011;50327;51.328;12.324;2022-12-07T15:43:54;7.32;;;1.80;;
64075;SDS011;50327;51.328;12.324;2022-12-07T15:46:39;3.65;;;1.45;;
64075;SDS011;50327;51.328;12.324;2022-12-07T15:49:06;6.38;;;2.15;;
64075;SDS011;50327;51.328;12.324;2022-12-07T15:51:33;8.90;;;1.95;;
64075;SDS011;50327;51.328;12.324;2022-12-07T15:53:58;4.85;;;1.77;;
64075;SDS011;50327;51.328;12.324;2022-12-07T15:56:24;4.68;;;1.60;;
64075;SDS011;50327;51.328;12.324;2022-12-07T15:58:49;5.18;;;1.73;;
64075;SDS011;50327;51.328;12.324;2022-12-07T16:01:15;8.27;;;1.50;;
64075;SDS011;50327;51.328;12.324;2022-12-07T16:03:41;6.88;;;1.67;;
64075;SDS011;50327;51.328;12.324;2022-12-07T16:06:06;9.30;;;1.90;;
64075;SDS011;50327;51.328;12.324;2022-12-07T16:08:32;4.85;;;1.80;;
64075;SDS011;50327;51.328;12.324;2022-12-07T16:10:57;6.85;;;2.00;;
64075;SDS011;50327;51.328;12.324;2022-12-07T16:13:22;9.85;;;1.50;;
64075;SDS011;50327;51.328;12.324;2022-12-07T16:15:47;6.60;;;1.45;;
64075;SDS011;50327;51.328;12.324;2022-12-07T16:18:13;6.05;;;1.60;;
64075;SDS011;50327;51.328;12.324;2022-12-07T16:20:38;3.00;;;1.50;;
64075;SDS011;50327;51.328;12.324;2022-12-07T16:23:04;4.90;;;1.88;;
64075;SDS011;50327;51.328;12.324;2022-12-07T16:25:29;8.50;;;1.83;;
64075;SDS011;50327;51.328;12.324;2022-12-07T16:27:54;4.00;;;1.90;;
64075;SDS011;50327;51.328;12.324;2022-12-07T16:30:20;3.70;;;1.80;;
64075;SDS011;50327;51.328;12.324;2022-12-07T16:32:45;11.20;;;1.98;;
64075;SDS011;50327;51.328;12.324;2022-12-07T16:35:11;14.07;;;2.50;;
64075;SDS011;50327;51.328;12.324;2022-12-07T16:37:36;5.82;;;2.42;;